createdAt,value
2022-10-21T00:04:40.394Z,54.70
2022-10-21T00:09:55.381Z,54.60
2022-10-21T00:15:10.389Z,54.50
2022-10-21T00:20:25.409Z,54.50
2022-10-21T00:25:40.445Z,54.50
2022-10-21T00:30:57.941Z,54.50
2022-10-21T00:36:13.467Z,54.40
2022-10-21T00:41:28.651Z,54.70
2022-10-21T00:46:44.440Z,54.70
2022-10-21T00:51:59.747Z,54.80
2022-10-21T00:57:15.387Z,54.80
2022-10-21T01:02:30.632Z,55.00
2022-10-21T01:08:24.741Z,55.10
2022-10-21T01:13:40.437Z,55.20
2022-10-21T01:18:55.167Z,55.30
2022-10-21T01:24:10.688Z,55.30
2022-10-21T01:29:27.735Z,55.40
2022-10-21T01:34:43.785Z,55.50
2022-10-21T01:39:59.463Z,55.40
2022-10-21T01:45:14.406Z,55.40
2022-10-21T01:50:29.734Z,55.50
2022-10-21T01:55:45.423Z,55.50
2022-10-21T02:01:00.740Z,55.80
2022-10-21T02:06:16.708Z,56.10
2022-10-21T02:11:32.749Z,56.00
2022-10-21T02:16:48.741Z,55.80
2022-10-21T02:22:03.417Z,55.80
2022-10-21T02:27:18.428Z,55.80
2022-10-21T02:32:33.724Z,55.70
2022-10-21T02:37:49.433Z,55.60
2022-10-21T02:43:04.423Z,55.60
2022-10-21T02:48:19.410Z,55.60
2022-10-21T02:53:34.493Z,55.70
2022-10-21T02:58:49.494Z,55.90
2022-10-21T03:04:04.499Z,55.80
2022-10-21T03:09:19.469Z,55.90
2022-10-21T03:14:34.720Z,55.80
2022-10-21T03:19:50.407Z,55.90
2022-10-21T03:25:05.473Z,55.90
2022-10-21T03:30:20.390Z,55.90
2022-10-21T03:35:35.414Z,55.80
2022-10-21T03:40:50.453Z,55.90
2022-10-21T03:46:05.408Z,55.90
2022-10-21T03:51:20.460Z,56.00
2022-10-21T03:56:35.748Z,56.00
2022-10-21T04:01:51.529Z,56.00
2022-10-21T04:07:06.432Z,55.90
2022-10-21T04:12:21.712Z,56.00
2022-10-21T04:17:37.634Z,56.20
2022-10-21T04:22:53.717Z,56.00
2022-10-21T04:28:09.735Z,56.00
2022-10-21T04:33:25.767Z,55.90
2022-10-21T04:38:41.224Z,55.80
2022-10-21T04:43:56.742Z,55.80
2022-10-21T04:49:12.706Z,55.90
2022-10-21T04:54:28.434Z,56.30
2022-10-21T04:59:43.745Z,55.50
2022-10-21T05:04:59.743Z,55.60
2022-10-21T05:10:15.426Z,54.70
2022-10-21T05:15:30.419Z,54.50
2022-10-21T05:20:45.697Z,54.50
2022-10-21T05:26:01.675Z,54.30
2022-10-21T05:31:17.407Z,54.20
2022-10-21T05:36:32.472Z,54.20
2022-10-21T05:41:48.167Z,54.20
2022-10-21T05:47:03.400Z,54.30
2022-10-21T05:52:18.449Z,54.20
2022-10-21T05:57:33.420Z,54.40
2022-10-21T06:02:48.477Z,54.50
2022-10-21T06:08:03.456Z,54.50
2022-10-21T06:13:18.411Z,54.60
2022-10-21T06:18:33.452Z,54.70
2022-10-21T06:23:49.731Z,54.60
2022-10-21T06:29:05.442Z,54.60
2022-10-21T06:34:20.482Z,54.60
2022-10-21T06:39:35.760Z,54.60
2022-10-21T06:44:52.728Z,54.70
2022-10-21T06:50:09.730Z,54.80
2022-10-21T06:55:25.465Z,54.80
2022-10-21T07:00:40.456Z,54.80
2022-10-21T07:05:55.542Z,54.90
2022-10-21T07:11:10.453Z,54.90
2022-10-21T07:16:25.460Z,54.90
2022-10-21T07:21:40.395Z,54.80
2022-10-21T07:26:55.396Z,54.90
2022-10-21T07:32:10.750Z,55.10
2022-10-21T07:37:26.661Z,55.20
2022-10-21T07:42:42.411Z,55.20
2022-10-21T07:47:57.397Z,55.20
2022-10-21T07:53:13.156Z,55.30
2022-10-21T07:58:28.200Z,55.40
2022-10-21T08:03:43.808Z,55.40
2022-10-21T08:08:59.572Z,55.40
2022-10-21T08:14:14.414Z,55.40
2022-10-21T08:19:29.271Z,55.40
2022-10-21T08:24:44.428Z,55.50
2022-10-21T08:29:59.446Z,55.50
2022-10-21T08:35:14.437Z,55.60
2022-10-21T08:40:29.817Z,55.50
2022-10-21T08:45:45.693Z,55.60
2022-10-21T08:51:01.481Z,55.60
2022-10-21T08:56:19.817Z,55.60
2022-10-21T09:01:35.443Z,55.70
2022-10-21T09:06:50.653Z,55.70
2022-10-21T09:12:05.736Z,55.70
2022-10-21T09:17:21.436Z,55.70
2022-10-21T09:22:36.460Z,55.70
2022-10-21T09:27:56.146Z,55.70
2022-10-21T09:33:11.778Z,55.70
2022-10-21T09:38:27.501Z,55.70
2022-10-21T09:43:42.448Z,55.70
2022-10-21T09:49:36.299Z,55.70
2022-10-21T09:54:32.415Z,55.70
2022-10-21T09:59:47.444Z,55.80
2022-10-21T10:05:02.528Z,55.90
2022-10-21T10:10:17.768Z,56.40
2022-10-21T10:15:33.317Z,56.60
2022-10-21T10:20:48.526Z,56.70
2022-10-21T10:26:03.571Z,56.70
2022-10-21T10:31:18.211Z,56.70
2022-10-21T10:36:33.515Z,56.60
2022-10-21T10:41:48.461Z,56.50
2022-10-21T10:47:03.517Z,56.40
2022-10-21T10:52:18.525Z,56.40
2022-10-21T10:57:44.437Z,56.40
2022-10-21T11:03:07.481Z,56.40
2022-10-21T11:08:22.442Z,56.40
2022-10-21T11:13:41.300Z,56.40
2022-10-21T11:18:57.458Z,56.40
2022-10-21T11:24:12.483Z,56.40
2022-10-21T11:29:27.426Z,56.50
2022-10-21T11:34:42.443Z,56.50
2022-10-21T11:39:57.507Z,56.80
2022-10-21T11:45:12.894Z,56.60
2022-10-21T11:50:28.776Z,56.60
2022-10-21T11:55:44.582Z,56.70
2022-10-21T12:00:59.491Z,56.80
2022-10-21T12:06:14.459Z,57.00
2022-10-21T12:11:29.769Z,57.10
2022-10-21T12:16:45.824Z,57.30
2022-10-21T12:22:01.480Z,57.70
2022-10-21T12:27:16.747Z,58.20
2022-10-21T12:32:32.436Z,58.60
2022-10-21T12:37:47.461Z,58.80
2022-10-21T12:43:02.513Z,59.00
2022-10-21T12:48:17.443Z,59.00
2022-10-21T12:53:32.440Z,59.00
2022-10-21T12:58:47.429Z,59.10
2022-10-21T13:04:02.538Z,59.10
2022-10-21T13:09:17.331Z,59.00
2022-10-21T13:14:36.138Z,59.20
2022-10-21T13:19:51.496Z,59.20
2022-10-21T13:25:06.825Z,59.20
2022-10-21T13:30:22.473Z,59.20
2022-10-21T13:35:37.508Z,59.20
2022-10-21T13:40:53.020Z,59.20
2022-10-21T13:46:08.994Z,59.30
2022-10-21T13:51:24.441Z,59.20
2022-10-21T13:56:39.521Z,59.30
2022-10-21T14:01:54.515Z,59.30
2022-10-21T14:07:10.531Z,59.30
2022-10-21T14:12:25.464Z,59.30
2022-10-21T14:17:40.616Z,59.30
2022-10-21T14:22:56.805Z,59.20
2022-10-21T14:28:12.475Z,59.10
2022-10-21T14:33:27.454Z,59.10
2022-10-21T14:38:42.481Z,59.00
2022-10-21T14:43:57.473Z,59.00
2022-10-21T14:49:12.523Z,58.90
2022-10-21T14:54:28.485Z,58.90
2022-10-21T14:59:43.511Z,58.80
2022-10-21T15:04:58.451Z,58.70
2022-10-21T15:10:13.331Z,58.70
2022-10-21T15:15:28.476Z,58.70
2022-10-21T15:20:43.504Z,58.70
2022-10-21T15:25:59.039Z,58.70
2022-10-21T15:31:14.231Z,58.60
2022-10-21T15:36:29.521Z,58.80
2022-10-21T15:41:44.747Z,58.90
2022-10-21T15:47:00.276Z,59.00
2022-10-21T15:52:15.455Z,59.20
2022-10-21T15:57:30.445Z,59.60
2022-10-21T16:02:45.840Z,60.00
2022-10-21T16:08:01.571Z,60.40
2022-10-21T16:13:16.488Z,60.70
2022-10-21T16:18:31.513Z,60.90
2022-10-21T16:23:46.504Z,60.90
2022-10-21T16:29:01.490Z,60.80
2022-10-21T16:34:16.878Z,60.80
2022-10-21T16:39:32.596Z,60.80
2022-10-21T16:44:47.482Z,60.70
2022-10-21T16:50:02.558Z,60.60
2022-10-21T16:55:17.502Z,60.50
2022-10-21T17:00:32.501Z,60.50
2022-10-21T17:05:47.801Z,60.50
2022-10-21T17:11:03.479Z,60.50
2022-10-21T17:16:18.483Z,60.50
2022-10-21T17:21:33.806Z,60.40
2022-10-21T17:26:49.504Z,60.50
2022-10-21T17:32:04.776Z,60.40
2022-10-21T17:37:20.482Z,60.30
2022-10-21T17:42:36.019Z,60.40
2022-10-21T17:47:51.911Z,60.40
2022-10-21T17:53:07.809Z,60.30
2022-10-21T17:58:23.506Z,60.40
2022-10-21T18:03:38.497Z,60.30
2022-10-21T18:08:53.531Z,60.30
2022-10-21T18:14:08.523Z,60.20
2022-10-21T18:19:23.452Z,60.20
2022-10-21T18:24:38.333Z,60.20
2022-10-21T18:29:53.969Z,60.10
2022-10-21T18:35:09.253Z,60.10
2022-10-21T18:40:24.480Z,60.10
2022-10-21T18:45:39.511Z,60.10
2022-10-21T18:50:54.565Z,60.10
2022-10-21T18:56:09.497Z,60.60
2022-10-21T19:01:24.574Z,60.00
2022-10-21T19:06:39.503Z,60.00
2022-10-21T19:11:54.529Z,60.30
2022-10-21T19:17:09.513Z,59.90
2022-10-21T19:22:24.583Z,59.80
2022-10-21T19:27:39.701Z,59.80
2022-10-21T19:32:55.499Z,59.70
2022-10-21T19:38:20.462Z,59.70
2022-10-21T19:43:41.839Z,59.30
2022-10-21T19:48:57.494Z,59.70
2022-10-21T19:54:12.559Z,59.80
2022-10-21T19:59:27.518Z,59.80
2022-10-21T20:04:42.563Z,59.80
2022-10-21T20:09:57.488Z,59.90
2022-10-21T20:15:12.704Z,59.90
2022-10-21T20:20:27.808Z,60.00
2022-10-21T20:25:43.498Z,59.80
2022-10-21T20:30:58.539Z,59.70
2022-10-21T20:36:13.256Z,59.50
2022-10-21T20:41:28.801Z,59.30
2022-10-21T20:46:44.704Z,59.20
2022-10-21T20:52:00.812Z,59.10
2022-10-21T20:57:16.548Z,59.00
2022-10-21T21:02:31.514Z,58.90
2022-10-21T21:07:46.535Z,58.70
2022-10-21T21:13:01.793Z,58.60
2022-10-21T21:18:17.861Z,58.50
2022-10-21T21:23:33.502Z,58.40
2022-10-21T21:28:48.490Z,58.40
2022-10-21T21:34:03.773Z,58.30
2022-10-21T21:39:19.538Z,58.30
2022-10-21T21:44:34.523Z,58.40
2022-10-21T21:49:49.599Z,58.20
2022-10-21T21:55:04.497Z,58.20
2022-10-21T22:00:19.788Z,58.10
2022-10-21T22:05:35.633Z,58.00
2022-10-21T22:10:50.518Z,58.00
2022-10-21T22:16:05.483Z,58.30
2022-10-21T22:21:20.595Z,58.30
2022-10-21T22:26:35.470Z,58.00
2022-10-21T22:31:50.531Z,58.00
2022-10-21T22:37:05.554Z,57.80
2022-10-21T22:42:20.541Z,57.80
2022-10-21T22:47:35.258Z,57.70
2022-10-21T22:52:50.486Z,57.70
2022-10-21T22:58:05.839Z,58.30
2022-10-21T23:03:21.489Z,57.80
2022-10-21T23:08:36.545Z,57.60
2022-10-21T23:14:02.526Z,57.60
2022-10-21T23:19:18.513Z,57.70
2022-10-21T23:24:34.552Z,57.90
2022-10-21T23:29:49.493Z,57.90
2022-10-21T23:35:04.503Z,57.80
2022-10-21T23:40:19.560Z,57.80
2022-10-21T23:45:34.843Z,57.80
2022-10-21T23:50:50.540Z,57.70
2022-10-21T23:56:05.495Z,57.80
